Time;durP1;ratioP1;P1;durP2;ratioP2;P2;SDS_P1;SDS_P2;PMS_P1;PMS_P2;Temp;Humidity;BMP_temperature;BMP_pressure;BME280_temperature;BME280_humidity;BME280_pressure;Samples;Min_cycle;Max_cycle;Signal;HPM_P1;HPM_P2
2022/08/03 00:01:29;;;;;;;12.90;2.42;;;20.30;99.90;;;;;;5051783;28;20193;-67
2022/08/03 00:03:55;;;;;;;12.65;2.15;;;20.30;99.90;;;;;;5051869;28;20169;-68
2022/08/03 00:06:20;;;;;;;8.70;2.30;;;20.20;99.90;;;;;;5051709;28;20668;-69
2022/08/03 00:08:46;;;;;;;10.80;2.20;;;20.10;99.90;;;;;;5051854;28;20201;-68
2022/08/03 00:11:12;;;;;;;8.73;2.35;;;20.10;99.90;;;;;;5051780;28;20633;-69
2022/08/03 00:13:37;;;;;;;10.57;1.80;;;20.10;99.90;;;;;;5051827;28;20165;-68
2022/08/03 00:16:04;;;;;;;12.93;2.08;;;20.10;99.90;;;;;;5051587;28;20245;-68
2022/08/03 00:18:30;;;;;;;9.27;2.15;;;20.10;99.90;;;;;;5051592;28;20177;-67
2022/08/03 00:20:55;;;;;;;9.68;2.00;;;20.10;99.90;;;;;;5051680;28;20616;-66
2022/08/03 00:23:21;;;;;;;6.38;1.83;;;20.10;99.90;;;;;;5051454;28;20227;-64
2022/08/03 00:25:47;;;;;;;15.48;2.60;;;20.10;99.90;;;;;;5051929;28;20174;-64
2022/08/03 00:28:12;;;;;;;8.10;1.95;;;20.20;99.90;;;;;;5051380;28;20224;-63
2022/08/03 00:30:38;;;;;;;11.38;1.83;;;20.20;99.90;;;;;;5051373;28;20211;-62
2022/08/03 00:33:04;;;;;;;12.35;1.65;;;20.20;99.90;;;;;;5051294;28;20708;-63
2022/08/03 00:35:30;;;;;;;9.15;2.47;;;20.20;99.90;;;;;;5051323;28;20394;-62
2022/08/03 00:37:56;;;;;;;6.75;2.15;;;20.20;99.90;;;;;;5040931;28;20177;-62
2022/08/03 00:40:22;;;;;;;9.13;2.03;;;20.30;99.90;;;;;;5031336;28;20173;-63
2022/08/03 00:42:56;;;;;;;5.90;1.70;;;20.30;99.90;;;;;;5031332;28;20625;-62
2022/08/03 00:45:27;;;;;;;15.13;2.60;;;20.20;99.90;;;;;;5045266;28;20176;-62
2022/08/03 00:47:54;;;;;;;12.95;2.08;;;20.30;99.90;;;;;;5047541;28;20205;-62
2022/08/03 00:50:23;;;;;;;12.98;1.92;;;20.30;99.90;;;;;;5040166;28;20800;-62
2022/08/03 00:52:51;;;;;;;8.45;1.92;;;20.20;99.90;;;;;;5051010;28;20667;-62
2022/08/03 00:55:17;;;;;;;10.57;1.85;;;20.20;99.90;;;;;;5034195;28;20211;-62
2022/08/03 00:57:43;;;;;;;13.60;2.40;;;20.20;99.90;;;;;;5031098;28;20188;-62
2022/08/03 01:00:11;;;;;;;9.18;2.08;;;20.20;99.90;;;;;;5031064;28;20174;-62
2022/08/03 01:02:38;;;;;;;12.27;2.15;;;20.20;99.90;;;;;;5051160;28;20173;-62
2022/08/03 01:05:05;;;;;;;15.57;2.00;;;20.10;99.90;;;;;;5051317;28;20177;-62
2022/08/03 01:07:49;;;;;;;9.48;2.08;;;20.10;99.90;;;;;;5050691;28;20200;-62
2022/08/03 01:10:30;;;;;;;7.65;1.50;;;20.10;99.90;;;;;;5030983;28;20169;-62
2022/08/03 01:13:10;;;;;;;8.85;2.30;;;20.10;99.90;;;;;;5030922;28;20188;-62
2022/08/03 01:15:40;;;;;;;7.65;1.90;;;20.10;99.90;;;;;;5030980;28;20295;-62
2022/08/03 01:18:24;;;;;;;5.32;1.67;;;20.00;99.90;;;;;;5030892;28;20675;-62
2022/08/03 01:20:54;;;;;;;6.25;1.95;;;20.00;99.90;;;;;;5030876;28;20252;-62
2022/08/03 01:23:44;;;;;;;8.35;1.70;;;20.00;99.90;;;;;;5041714;28;20181;-62
2022/08/03 01:26:22;;;;;;;8.25;2.22;;;19.90;99.90;;;;;;5050495;28;20662;-62
2022/08/03 01:29:02;;;;;;;13.95;1.60;;;19.90;99.90;;;;;;5050772;28;20193;-61
2022/08/03 01:31:40;;;;;;;10.23;2.10;;;19.90;99.90;;;;;;5049361;28;20509;-63
2022/08/03 01:34:10;;;;;;;5.93;1.70;;;19.90;99.90;;;;;;5050622;28;20231;-62
2022/08/03 01:36:42;;;;;;;8.07;1.73;;;19.90;99.90;;;;;;5049289;28;20217;-63
2022/08/03 01:39:10;;;;;;;6.93;1.48;;;19.90;99.90;;;;;;5050519;28;20174;-61
2022/08/03 01:41:59;;;;;;;9.95;1.70;;;19.90;99.90;;;;;;5050387;28;20176;-61
2022/08/03 01:44:29;;;;;;;5.63;1.65;;;19.90;99.90;;;;;;5049408;28;20173;-62
2022/08/03 01:46:59;;;;;;;7.50;1.85;;;19.90;99.90;;;;;;5050627;28;20232;-62
2022/08/03 01:49:27;;;;;;;10.52;1.52;;;19.90;99.90;;;;;;5040495;28;20227;-63
2022/08/03 01:51:54;;;;;;;11.85;1.98;;;19.90;99.90;;;;;;5030631;28;20269;-62
2022/08/03 01:54:23;;;;;;;5.30;1.50;;;19.90;99.90;;;;;;5032515;28;20185;-63
2022/08/03 01:56:51;;;;;;;5.85;1.73;;;19.90;99.90;;;;;;5050481;28;20645;-63
2022/08/03 01:59:19;;;;;;;8.20;1.60;;;19.90;99.90;;;;;;5050569;28;20268;-62
2022/08/03 02:01:46;;;;;;;8.75;1.65;;;19.90;99.90;;;;;;5050943;28;20170;-62
2022/08/03 02:04:16;;;;;;;8.13;1.85;;;19.90;99.90;;;;;;5035240;28;20178;-62
2022/08/03 02:06:43;;;;;;;7.90;1.60;;;19.80;99.90;;;;;;5034055;28;20209;-62
2022/08/03 02:09:14;;;;;;;6.07;1.35;;;19.80;99.90;;;;;;5034101;28;20253;-62
2022/08/03 02:11:42;;;;;;;6.43;1.73;;;19.80;99.90;;;;;;5034104;28;20173;-62
2022/08/03 02:14:09;;;;;;;13.00;1.90;;;19.70;99.90;;;;;;5036274;28;20608;-63
2022/08/03 02:16:35;;;;;;;8.20;2.03;;;19.70;99.90;;;;;;5054033;28;20181;-69
2022/08/03 02:19:05;;;;;;;5.53;1.85;;;19.70;99.90;;;;;;5053788;28;20169;-60
2022/08/03 02:21:34;;;;;;;6.57;2.22;;;19.70;99.90;;;;;;5054079;28;20262;-60
2022/08/03 02:24:01;;;;;;;5.55;1.90;;;19.70;99.90;;;;;;5053751;28;20169;-60
2022/08/03 02:26:29;;;;;;;11.55;1.83;;;19.60;99.90;;;;;;5053637;28;20307;-61
2022/08/03 02:28:58;;;;;;;7.40;1.50;;;19.60;99.90;;;;;;5053828;28;20166;-61
2022/08/03 02:31:29;;;;;;;11.60;1.90;;;19.60;99.90;;;;;;5053577;28;20641;-60
2022/08/03 02:34:03;;;;;;;6.93;1.50;;;19.60;99.90;;;;;;5053594;28;20201;-61
2022/08/03 02:36:33;;;;;;;4.88;1.52;;;19.60;99.90;;;;;;5051892;28;20312;-62
2022/08/03 02:39:02;;;;;;;7.13;1.60;;;19.60;99.90;;;;;;5053231;28;20184;-62
2022/08/03 02:41:33;;;;;;;4.63;1.35;;;19.60;99.90;;;;;;5053531;28;20212;-62
2022/08/03 02:44:01;;;;;;;8.18;1.60;;;19.60;99.90;;;;;;5053502;28;20279;-62
2022/08/03 02:46:34;;;;;;;8.18;1.63;;;19.60;99.90;;;;;;5053272;28;20560;-61
2022/08/03 02:49:03;;;;;;;6.43;1.50;;;19.60;99.90;;;;;;5053501;28;20643;-62
2022/08/03 02:51:32;;;;;;;6.38;1.50;;;19.60;99.90;;;;;;5053335;28;20694;-63
2022/08/03 02:54:01;;;;;;;10.13;1.98;;;19.60;99.90;;;;;;5053370;28;20173;-62
2022/08/03 02:56:28;;;;;;;4.30;1.45;;;19.70;99.90;;;;;;5039165;28;20189;-63
2022/08/03 02:58:56;;;;;;;6.18;1.67;;;19.70;99.90;;;;;;5053134;28;20193;-62
2022/08/03 03:01:24;;;;;;;5.07;1.40;;;19.70;99.90;;;;;;5045837;28;20181;-62
2022/08/03 03:03:51;;;;;;;6.63;1.48;;;19.70;99.90;;;;;;5033582;28;20188;-62
2022/08/03 03:06:18;;;;;;;6.90;1.88;;;19.70;99.90;;;;;;5033027;28;20201;-61
2022/08/03 03:08:45;;;;;;;8.18;2.22;;;19.60;99.90;;;;;;5049733;28;20177;-62
2022/08/03 03:11:13;;;;;;;5.75;2.50;;;19.60;99.90;;;;;;5052874;28;20638;-62
2022/08/03 03:13:42;;;;;;;7.38;2.33;;;19.60;99.90;;;;;;5052035;28;20181;-61
2022/08/03 03:16:10;;;;;;;6.10;3.03;;;19.50;99.90;;;;;;5052914;28;20161;-61
2022/08/03 03:18:38;;;;;;;8.45;3.95;;;19.50;99.90;;;;;;5052785;28;20189;-62
2022/08/03 03:21:04;;;;;;;6.80;3.25;;;19.50;99.90;;;;;;5052824;28;20161;-62
2022/08/03 03:23:31;;;;;;;9.70;3.72;;;19.50;99.90;;;;;;5052685;28;20177;-63
2022/08/03 03:25:57;;;;;;;9.88;3.60;;;19.50;99.90;;;;;;5052652;28;20295;-62
2022/08/03 03:28:24;;;;;;;7.18;3.63;;;19.40;99.90;;;;;;5052540;28;20692;-62
2022/08/03 03:30:49;;;;;;;10.88;4.15;;;19.40;99.90;;;;;;5049992;28;20170;-62
2022/08/03 03:33:16;;;;;;;9.10;3.88;;;19.40;99.90;;;;;;5032597;28;20196;-67
2022/08/03 03:35:43;;;;;;;11.10;4.13;;;19.40;99.90;;;;;;5032809;28;20228;-66
2022/08/03 03:38:09;;;;;;;7.15;3.10;;;19.40;99.90;;;;;;5036475;28;20177;-63
2022/08/03 03:40:36;;;;;;;7.22;3.47;;;19.30;99.90;;;;;;5052303;28;20199;-63
2022/08/03 03:43:02;;;;;;;9.43;3.42;;;19.30;99.90;;;;;;5051920;28;20169;-63
2022/08/03 03:45:30;;;;;;;6.47;3.03;;;19.30;99.90;;;;;;5032364;28;20229;-62
2022/08/03 03:47:58;;;;;;;5.38;2.83;;;19.30;99.90;;;;;;5032343;28;20210;-62
2022/08/03 03:50:24;;;;;;;6.53;2.47;;;19.30;99.90;;;;;;5032251;28;20197;-62
2022/08/03 03:52:49;;;;;;;10.30;2.47;;;19.30;99.90;;;;;;5032149;28;20169;-63
2022/08/03 03:55:17;;;;;;;5.43;2.10;;;19.30;99.90;;;;;;5032887;28;20702;-63
2022/08/03 03:57:43;;;;;;;5.22;1.85;;;19.30;99.90;;;;;;5052179;28;20839;-63
2022/08/03 04:00:10;;;;;;;8.77;1.83;;;19.30;99.90;;;;;;5052120;28;20165;-63
2022/08/03 04:02:37;;;;;;;5.53;1.52;;;19.30;99.90;;;;;;5052097;28;20195;-62
2022/08/03 04:10:59;;;;;;;8.88;1.58;;;19.30;99.90;;;;;;5052205;28;20627;-63
2022/08/03 04:13:37;;;;;;;4.95;1.27;;;19.30;99.90;;;;;;5051819;28;20180;-64
2022/08/03 04:16:03;;;;;;;3.67;1.15;;;19.40;99.90;;;;;;5051750;28;20171;-63
2022/08/03 04:18:31;;;;;;;3.42;1.33;;;19.40;99.90;;;;;;5051722;28;20166;-63
2022/08/03 04:21:02;;;;;;;3.33;1.10;;;19.50;99.90;;;;;;5051719;28;20655;-63
2022/08/03 04:23:32;;;;;;;4.05;1.30;;;19.50;99.90;;;;;;5051689;28;20169;-63
2022/08/03 04:26:00;;;;;;;4.05;1.50;;;19.50;99.90;;;;;;5051344;28;20176;-63
2022/08/03 04:28:27;;;;;;;4.03;1.33;;;19.50;99.90;;;;;;5051473;28;20200;-64
2022/08/03 04:30:54;;;;;;;3.78;1.50;;;19.60;99.90;;;;;;5051408;28;20264;-64
2022/08/03 04:33:22;;;;;;;6.28;1.20;;;19.60;99.90;;;;;;5051235;28;20173;-64
2022/08/03 04:35:49;;;;;;;6.13;1.02;;;19.60;99.90;;;;;;5051243;28;20300;-64
2022/08/03 04:38:18;;;;;;;3.22;1.17;;;19.60;99.90;;;;;;5051277;28;20549;-63
2022/08/03 04:40:46;;;;;;;5.05;1.23;;;19.60;99.90;;;;;;5051272;28;20600;-63
2022/08/03 04:43:15;;;;;;;3.53;1.10;;;19.60;99.90;;;;;;5051290;28;20240;-63
2022/08/03 04:45:42;;;;;;;3.10;0.95;;;19.60;99.90;;;;;;5051241;28;20264;-64
2022/08/03 04:48:08;;;;;;;3.60;1.10;;;19.60;99.90;;;;;;5051116;28;20259;-63
2022/08/03 04:50:35;;;;;;;2.40;0.95;;;19.60;99.90;;;;;;5051065;28;20542;-62
2022/08/03 04:53:00;;;;;;;2.78;1.02;;;19.70;99.90;;;;;;5051027;28;20208;-62
2022/08/03 04:55:27;;;;;;;2.47;0.70;;;19.70;99.90;;;;;;5051032;28;20199;-63
2022/08/03 04:57:52;;;;;;;3.88;0.88;;;19.70;99.90;;;;;;5050924;28;20173;-62
2022/08/03 05:00:19;;;;;;;4.35;0.90;;;19.70;99.90;;;;;;5051069;28;20169;-62
2022/08/03 05:02:44;;;;;;;6.22;0.90;;;19.70;99.90;;;;;;5051080;28;20242;-62
2022/08/03 05:05:10;;;;;;;4.60;1.20;;;19.70;99.90;;;;;;5050932;28;20627;-61
2022/08/03 05:07:36;;;;;;;2.55;0.88;;;19.80;99.90;;;;;;5047327;28;20299;-62
2022/08/03 05:10:07;;;;;;;3.58;1.00;;;19.80;99.90;;;;;;5040290;28;20208;-62
2022/08/03 05:12:33;;;;;;;4.93;1.50;;;19.80;99.90;;;;;;5050930;28;20162;-62
2022/08/03 05:14:59;;;;;;;4.10;1.23;;;19.80;99.90;;;;;;5050766;28;20177;-62
2022/08/03 05:17:25;;;;;;;7.45;1.50;;;19.80;99.90;;;;;;5049638;28;20643;-62
2022/08/03 05:19:51;;;;;;;3.65;1.58;;;19.80;99.90;;;;;;5050845;28;20169;-62
2022/08/03 05:22:16;;;;;;;5.38;2.30;;;19.90;99.90;;;;;;5050768;28;20200;-63
2022/08/03 05:24:42;;;;;;;7.25;2.00;;;19.90;99.90;;;;;;5050676;28;20686;-62
2022/08/03 05:27:08;;;;;;;3.78;1.90;;;19.80;99.90;;;;;;5050692;28;20200;-62
2022/08/03 05:29:33;;;;;;;2.78;2.00;;;19.90;99.90;;;;;;5050729;28;20180;-62
2022/08/03 05:32:00;;;;;;;6.47;2.50;;;19.90;99.90;;;;;;5050770;28;20172;-62
2022/08/03 05:34:26;;;;;;;4.95;2.80;;;19.90;99.90;;;;;;5050908;28;20200;-62
2022/08/03 05:36:52;;;;;;;7.68;3.15;;;19.90;99.90;;;;;;5051447;28;20208;-63
2022/08/03 05:39:17;;;;;;;8.68;3.90;;;19.90;99.90;;;;;;5054715;28;20518;-62
2022/08/03 05:41:43;;;;;;;8.55;3.60;;;20.00;99.90;;;;;;5054693;28;20517;-62
2022/08/03 05:44:09;;;;;;;8.35;3.80;;;20.00;99.90;;;;;;5054596;28;20231;-62
2022/08/03 05:46:34;;;;;;;8.10;3.42;;;20.00;99.90;;;;;;5054519;28;20197;-62
2022/08/03 05:49:00;;;;;;;10.15;4.30;;;20.00;99.90;;;;;;5054582;28;20343;-61
2022/08/03 05:51:27;;;;;;;5.93;3.35;;;20.10;99.90;;;;;;5054364;28;20223;-61
2022/08/03 05:53:53;;;;;;;4.43;3.30;;;20.10;99.90;;;;;;5054443;28;20169;-61
2022/08/03 05:56:23;;;;;;;6.82;3.42;;;20.10;99.90;;;;;;5054375;28;20177;-62
2022/08/03 05:58:48;;;;;;;5.65;2.97;;;20.10;99.90;;;;;;5054462;28;20177;-61
2022/08/03 06:01:16;;;;;;;5.07;3.10;;;20.10;99.90;;;;;;5054415;28;20192;-61
2022/08/03 06:03:42;;;;;;;7.88;2.70;;;20.10;99.90;;;;;;5054134;28;20165;-68
2022/08/03 06:06:08;;;;;;;4.95;2.38;;;20.20;99.90;;;;;;5053996;28;20655;-68
2022/08/03 06:08:34;;;;;;;4.07;2.15;;;20.20;99.90;;;;;;5041118;28;20198;-70
2022/08/03 06:10:59;;;;;;;5.43;2.20;;;20.20;99.90;;;;;;5034392;28;20174;-70
2022/08/03 06:13:25;;;;;;;5.35;1.58;;;20.30;99.90;;;;;;5034113;28;20251;-69
2022/08/03 06:15:51;;;;;;;6.22;1.55;;;20.30;99.90;;;;;;5033928;28;20260;-70
2022/08/03 06:18:16;;;;;;;4.40;1.70;;;20.30;99.90;;;;;;5033945;28;20249;-67
2022/08/03 06:20:42;;;;;;;4.57;1.80;;;20.30;99.90;;;;;;5033951;28;20227;-68
2022/08/03 06:23:08;;;;;;;4.70;1.80;;;20.40;99.90;;;;;;5033880;28;20678;-61
2022/08/03 06:25:33;;;;;;;4.18;1.50;;;20.40;99.90;;;;;;5033990;28;20656;-60
2022/08/03 06:27:59;;;;;;;7.07;1.80;;;20.50;99.90;;;;;;5038309;28;20697;-59
2022/08/03 06:30:25;;;;;;;4.30;1.60;;;20.50;99.90;;;;;;5051222;28;20585;-61
2022/08/03 06:32:51;;;;;;;3.05;1.70;;;20.50;99.90;;;;;;5053577;28;20212;-60
2022/08/03 06:35:16;;;;;;;4.03;1.60;;;20.50;99.90;;;;;;5053416;28;20236;-59
2022/08/03 06:37:48;;;;;;;2.58;1.50;;;20.50;99.90;;;;;;5046695;28;20228;-59
2022/08/03 06:40:17;;;;;;;4.18;1.58;;;20.40;99.90;;;;;;5053347;28;20666;-59
2022/08/03 06:42:43;;;;;;;3.05;1.50;;;20.40;99.90;;;;;;5053622;28;20272;-59
2022/08/03 06:45:10;;;;;;;2.35;1.25;;;20.30;99.90;;;;;;5053418;28;20178;-58
2022/08/03 06:47:37;;;;;;;3.40;1.48;;;20.30;99.90;;;;;;5051531;28;20224;-59
2022/08/03 06:50:05;;;;;;;5.47;1.80;;;20.30;99.90;;;;;;5052255;28;20166;-59
2022/08/03 06:52:30;;;;;;;3.38;1.25;;;20.40;99.90;;;;;;5053101;28;20208;-59
2022/08/03 06:54:56;;;;;;;2.20;1.00;;;20.40;99.90;;;;;;5053249;28;20201;-65
2022/08/03 06:57:22;;;;;;;2.42;1.23;;;20.50;99.90;;;;;;5051541;28;20734;-65
2022/08/03 06:59:48;;;;;;;4.30;0.93;;;20.40;99.90;;;;;;5053076;28;20173;-65
2022/08/03 07:02:14;;;;;;;2.60;0.90;;;20.50;99.90;;;;;;5053053;28;20540;-66
2022/08/03 07:04:39;;;;;;;2.53;0.90;;;20.50;99.90;;;;;;5052899;28;20546;-66
2022/08/03 07:07:05;;;;;;;1.67;0.80;;;20.50;99.90;;;;;;5053191;28;20220;-66
2022/08/03 07:09:31;;;;;;;2.88;0.80;;;20.50;99.90;;;;;;5051667;28;20379;-69
2022/08/03 07:11:57;;;;;;;3.65;1.08;;;20.60;99.90;;;;;;5052770;28;20703;-66
2022/08/03 07:14:23;;;;;;;1.63;0.70;;;20.70;99.90;;;;;;5040582;28;20260;-67
2022/08/03 07:16:49;;;;;;;2.67;0.88;;;20.70;99.90;;;;;;5050994;28;20173;-66
2022/08/03 07:19:15;;;;;;;4.25;0.90;;;20.80;99.90;;;;;;5036748;28;20280;-67
2022/08/03 07:21:41;;;;;;;4.05;0.90;;;20.90;99.90;;;;;;5032855;28;20282;-68
2022/08/03 07:24:06;;;;;;;2.33;0.90;;;20.90;99.90;;;;;;5032707;28;20672;-63
2022/08/03 07:26:32;;;;;;;2.15;0.75;;;21.00;99.90;;;;;;5032596;28;20197;-65
2022/08/03 07:28:59;;;;;;;5.53;1.02;;;21.00;99.90;;;;;;5032665;28;20181;-66
2022/08/03 07:31:25;;;;;;;5.57;0.90;;;21.00;99.90;;;;;;5037387;28;20169;-65
2022/08/03 07:33:51;;;;;;;2.20;0.82;;;21.00;99.90;;;;;;5052404;28;20170;-66
2022/08/03 07:36:16;;;;;;;1.67;0.75;;;21.00;99.90;;;;;;5036292;28;20296;-65
2022/08/03 07:38:42;;;;;;;4.50;0.95;;;21.00;99.90;;;;;;5052329;28;20185;-65
2022/08/03 07:41:08;;;;;;;5.03;0.80;;;21.00;99.90;;;;;;5052326;28;20170;-64
2022/08/03 07:43:33;;;;;;;4.97;0.82;;;21.10;99.90;;;;;;5052275;28;20181;-64
2022/08/03 07:45:59;;;;;;;5.55;1.17;;;21.20;99.90;;;;;;5052307;28;20169;-59
2022/08/03 07:48:24;;;;;;;5.93;1.20;;;21.20;99.90;;;;;;5050800;28;20243;-74
2022/08/03 07:50:51;;;;;;;4.28;0.68;;;21.30;99.90;;;;;;5052313;28;20249;-70
2022/08/03 07:53:17;;;;;;;8.10;1.00;;;21.50;99.90;;;;;;5052122;28;20730;-64
2022/08/03 07:55:42;;;;;;;5.10;0.80;;;21.60;99.90;;;;;;5052137;28;20213;-63
2022/08/03 07:58:16;;;;;;;5.82;0.70;;;21.80;99.90;;;;;;5049202;28;20536;-64
2022/08/03 08:00:43;;;;;;;8.45;0.90;;;21.70;99.90;;;;;;5031512;28;20170;-65
2022/08/03 08:03:10;;;;;;;5.30;0.80;;;21.90;99.90;;;;;;5038258;28;20315;-65
2022/08/03 08:05:35;;;;;;;5.63;1.10;;;22.00;99.90;;;;;;5051986;28;20169;-65
2022/08/03 08:08:02;;;;;;;2.85;0.70;;;22.10;99.90;;;;;;5044487;28;20567;-64
2022/08/03 08:10:28;;;;;;;3.75;0.75;;;22.00;99.90;;;;;;5044669;28;20587;-64
2022/08/03 08:12:54;;;;;;;4.75;0.70;;;21.90;99.90;;;;;;5039948;28;20671;-64
2022/08/03 08:15:20;;;;;;;2.53;0.60;;;21.80;99.90;;;;;;5048079;28;20219;-63
2022/08/03 08:17:47;;;;;;;1.55;0.60;;;21.70;99.90;;;;;;5047954;28;20256;-64
2022/08/03 08:20:23;;;;;;;1.38;0.45;;;21.50;99.90;;;;;;5042839;28;20168;-64
2022/08/03 08:22:48;;;;;;;2.72;0.30;;;21.60;99.90;;;;;;5051509;28;20165;-63
2022/08/03 08:25:15;;;;;;;3.08;0.70;;;21.70;99.90;;;;;;5032202;28;20513;-63
2022/08/03 08:27:46;;;;;;;2.20;0.50;;;21.90;99.90;;;;;;5040437;28;20209;-63
2022/08/03 08:30:13;;;;;;;1.17;0.52;;;22.10;99.90;;;;;;5051334;28;20166;-63
2022/08/03 08:32:39;;;;;;;2.70;0.40;;;22.00;99.90;;;;;;5051491;28;20235;-63
2022/08/03 08:35:05;;;;;;;2.28;0.52;;;22.00;99.90;;;;;;5051201;28;20621;-63
2022/08/03 08:37:32;;;;;;;0.98;0.35;;;21.90;99.90;;;;;;5031308;28;20182;-63
2022/08/03 08:39:59;;;;;;;1.33;0.55;;;21.60;99.90;;;;;;5031509;28;20204;-63
2022/08/03 08:42:25;;;;;;;2.70;0.40;;;21.30;99.90;;;;;;5031255;28;20167;-63
2022/08/03 08:44:51;;;;;;;1.90;0.40;;;21.10;99.90;;;;;;5031168;28;20193;-63
2022/08/03 08:47:28;;;;;;;0.40;0.40;;;21.00;99.90;;;;;;5047411;28;20201;-63
2022/08/03 08:49:54;;;;;;;2.55;0.95;;;20.80;99.90;;;;;;5051219;28;20176;-64
2022/08/03 08:52:27;;;;;;;2.58;1.27;;;20.60;99.90;;;;;;5050999;28;20215;-64
2022/08/03 08:55:02;;;;;;;3.58;1.80;;;20.40;99.90;;;;;;5050926;28;20205;-64
2022/08/03 08:57:31;;;;;;;3.58;2.00;;;20.30;99.90;;;;;;5050922;28;20199;-63
2022/08/03 08:59:58;;;;;;;3.60;1.65;;;20.30;99.90;;;;;;5050837;28;20189;-63
2022/08/03 09:02:24;;;;;;;2.17;1.35;;;20.20;99.90;;;;;;5050874;28;20215;-64
2022/08/03 09:04:50;;;;;;;2.45;1.27;;;20.10;99.90;;;;;;5049724;28;20575;-64
2022/08/03 09:07:16;;;;;;;2.25;1.40;;;20.10;99.90;;;;;;5044871;28;20197;-64
2022/08/03 09:09:42;;;;;;;1.63;1.33;;;20.10;99.90;;;;;;5049358;28;20185;-65
2022/08/03 09:12:08;;;;;;;3.30;1.10;;;20.10;99.90;;;;;;5048636;28;20165;-63
2022/08/03 09:14:34;;;;;;;2.45;1.10;;;20.00;99.90;;;;;;5040716;28;20243;-62
2022/08/03 09:17:01;;;;;;;2.90;1.05;;;19.90;99.90;;;;;;5048446;28;20181;-64
2022/08/03 09:19:32;;;;;;;1.48;1.00;;;19.90;99.90;;;;;;5037818;28;20170;-64
2022/08/03 09:22:16;;;;;;;1.85;1.10;;;19.80;99.90;;;;;;5032224;28;20250;-63
2022/08/03 09:25:04;;;;;;;3.15;1.33;;;19.80;99.90;;;;;;5048752;28;20196;-62
2022/08/03 09:27:44;;;;;;;1.33;1.10;;;19.90;99.90;;;;;;5050675;28;20277;-63
2022/08/03 09:30:16;;;;;;;2.70;0.80;;;19.90;99.90;;;;;;5050723;28;20227;-61
2022/08/03 09:32:44;;;;;;;1.08;0.90;;;19.90;99.90;;;;;;5049501;28;20204;-59
2022/08/03 09:35:12;;;;;;;1.73;0.88;;;19.90;99.90;;;;;;5035892;28;20204;-61
2022/08/03 09:37:38;;;;;;;0.90;0.80;;;20.00;99.90;;;;;;5049152;28;20234;-63
2022/08/03 09:40:05;;;;;;;1.60;1.10;;;20.10;99.90;;;;;;5042334;28;20174;-63
2022/08/03 09:42:33;;;;;;;1.00;0.95;;;20.10;99.90;;;;;;5049266;28;20177;-63
2022/08/03 09:44:59;;;;;;;2.08;1.38;;;20.10;99.90;;;;;;5050591;28;20192;-63
2022/08/03 09:47:30;;;;;;;4.03;1.75;;;20.30;99.90;;;;;;5038674;28;20216;-63
2022/08/03 09:50:08;;;;;;;2.42;1.80;;;20.20;99.90;;;;;;5036466;28;20172;-63
2022/08/03 09:52:36;;;;;;;2.55;1.70;;;20.10;99.90;;;;;;5044513;28;20174;-63
2022/08/03 09:55:11;;;;;;;2.50;1.95;;;20.00;99.90;;;;;;5041781;28;20176;-63
2022/08/03 09:57:39;;;;;;;3.88;1.63;;;20.00;99.90;;;;;;5049137;28;20307;-63
2022/08/03 10:00:11;;;;;;;4.32;1.55;;;20.00;99.90;;;;;;5038384;28;20184;-64
2022/08/03 10:02:38;;;;;;;7.47;1.80;;;20.10;99.90;;;;;;5042042;28;20170;-63
2022/08/03 10:05:05;;;;;;;1.92;1.60;;;20.00;99.90;;;;;;5035712;28;20196;-63
2022/08/03 10:07:45;;;;;;;3.38;1.48;;;20.20;99.90;;;;;;5046211;28;20215;-62
2022/08/03 10:10:11;;;;;;;8.80;1.63;;;20.20;99.90;;;;;;5039865;28;20179;-62
2022/08/03 10:12:39;;;;;;;4.20;1.95;;;20.20;99.90;;;;;;5049952;28;20211;-62
2022/08/03 10:15:05;;;;;;;3.35;1.73;;;20.30;99.90;;;;;;5038365;28;20288;-63
2022/08/03 10:17:31;;;;;;;6.80;1.83;;;20.30;99.90;;;;;;5045487;28;20544;-62
2022/08/03 10:19:58;;;;;;;5.25;2.17;;;20.20;99.90;;;;;;5045257;28;20170;-63
2022/08/03 10:22:31;;;;;;;2.88;1.90;;;20.00;99.90;;;;;;5039692;28;20260;-63
2022/08/03 10:25:08;;;;;;;5.55;1.95;;;20.00;99.90;;;;;;5051793;28;20173;-62
2022/08/03 10:27:37;;;;;;;11.25;2.95;;;20.20;99.90;;;;;;5048573;28;20212;-63
2022/08/03 10:30:06;;;;;;;6.43;2.10;;;20.40;99.90;;;;;;5053253;28;20204;-63
2022/08/03 10:32:45;;;;;;;5.03;1.95;;;20.70;99.90;;;;;;5045380;28;20185;-63
2022/08/03 10:35:18;;;;;;;6.10;2.05;;;21.10;99.90;;;;;;5034224;28;20217;-64
2022/08/03 10:37:48;;;;;;;5.45;2.10;;;21.10;99.90;;;;;;5032157;28;20178;-63
2022/08/03 10:40:18;;;;;;;5.93;2.00;;;21.20;99.90;;;;;;5038691;28;20176;-63
2022/08/03 10:42:45;;;;;;;6.03;1.50;;;21.10;99.90;;;;;;5042148;28;20178;-63
2022/08/03 10:45:19;;;;;;;9.75;2.42;;;21.40;99.90;;;;;;5047905;28;20512;-63
2022/08/03 10:47:46;;;;;;;7.75;2.10;;;21.40;99.90;;;;;;5040550;28;20204;-62
2022/08/03 10:50:12;;;;;;;7.53;2.08;;;21.60;99.90;;;;;;5053359;28;20172;-63
2022/08/03 10:52:55;;;;;;;9.30;2.20;;;21.70;99.90;;;;;;5047277;28;20569;-63
2022/08/03 10:58:15;;;;;;;7.13;1.98;;;21.80;99.90;;;;;;5047290;28;20590;-63
2022/08/03 11:00:49;;;;;;;11.68;2.40;;;21.90;99.90;;;;;;5052161;28;20267;-64
2022/08/03 11:03:16;;;;;;;5.47;2.10;;;22.20;99.90;;;;;;5033121;28;20226;-63
2022/08/03 11:05:47;;;;;;;5.70;2.20;;;22.40;99.90;;;;;;5038176;28;20523;-63
2022/08/03 11:08:35;;;;;;;4.65;1.88;;;22.60;99.90;;;;;;5037715;28;20205;-63
2022/08/03 11:11:27;;;;;;;6.53;1.98;;;22.60;99.90;;;;;;5042776;28;20177;-63
2022/08/03 11:14:06;;;;;;;6.13;2.05;;;22.90;99.90;;;;;;5048329;28;20312;-64
2022/08/03 11:16:35;;;;;;;6.75;2.10;;;23.50;99.90;;;;;;5047846;28;20174;-63
2022/08/03 11:19:05;;;;;;;5.32;2.10;;;24.10;99.90;;;;;;5053121;28;20188;-63
2022/08/03 11:21:49;;;;;;;10.88;2.17;;;24.40;99.90;;;;;;5052975;28;20199;-63
2022/08/03 11:24:39;;;;;;;7.72;1.58;;;24.90;99.90;;;;;;5052667;28;20189;-63
2022/08/03 11:27:28;;;;;;;9.35;1.98;;;25.00;99.90;;;;;;5048971;28;20703;-63
2022/08/03 11:30:06;;;;;;;5.15;1.80;;;25.10;99.90;;;;;;5032650;28;20181;-63
2022/08/03 11:32:46;;;;;;;6.38;1.70;;;25.00;99.90;;;;;;5050816;28;20169;-63
2022/08/03 11:35:20;;;;;;;4.15;2.22;;;24.90;99.90;;;;;;5051294;28;20225;-63
2022/08/03 11:38:01;;;;;;;10.07;2.00;;;24.70;99.90;;;;;;5039205;28;20216;-63
2022/08/03 11:40:35;;;;;;;6.05;2.15;;;24.60;99.90;;;;;;5032747;28;20260;-63
2022/08/03 11:43:03;;;;;;;6.05;1.75;;;24.60;99.90;;;;;;5032175;28;20272;-63
2022/08/03 11:45:30;;;;;;;6.80;1.92;;;24.60;99.90;;;;;;5032200;28;20193;-63
2022/08/03 11:47:57;;;;;;;6.85;1.80;;;24.90;99.90;;;;;;5030487;28;20354;-64
2022/08/03 11:50:24;;;;;;;10.27;1.92;;;25.30;99.90;;;;;;5031955;28;20182;-64
2022/08/03 11:52:50;;;;;;;6.28;1.83;;;25.10;99.90;;;;;;5031716;28;20174;-64
2022/08/03 11:55:19;;;;;;;6.63;2.00;;;25.00;99.90;;;;;;5040575;28;20182;-63
2022/08/03 11:57:46;;;;;;;9.68;2.25;;;24.80;99.90;;;;;;5045538;28;20640;-64
2022/08/03 12:00:26;;;;;;;8.18;1.85;;;24.60;99.90;;;;;;5043990;28;20173;-64
2022/08/03 12:02:56;;;;;;;7.07;1.80;;;24.80;99.90;;;;;;5051923;28;20172;-63
2022/08/03 12:05:32;;;;;;;8.88;2.10;;;24.50;99.90;;;;;;5051686;28;20207;-63
2022/08/03 12:07:58;;;;;;;5.85;1.73;;;24.40;99.90;;;;;;5049475;28;20219;-64
2022/08/03 12:10:25;;;;;;;4.10;1.73;;;24.20;99.90;;;;;;5051600;28;20207;-64
2022/08/03 12:13:01;;;;;;;5.75;1.73;;;24.00;99.90;;;;;;5051700;28;20181;-64
2022/08/03 12:15:29;;;;;;;5.85;2.03;;;23.40;99.90;;;;;;5051660;28;20497;-63
2022/08/03 12:17:56;;;;;;;7.82;1.80;;;23.10;99.90;;;;;;5051489;28;20161;-63
2022/08/03 12:20:27;;;;;;;5.05;1.65;;;22.90;99.90;;;;;;5051540;28;20181;-63
2022/08/03 12:22:53;;;;;;;8.32;1.88;;;23.20;99.90;;;;;;5051628;28;20754;-64
2022/08/03 12:25:24;;;;;;;4.65;1.80;;;23.80;99.90;;;;;;5051414;28;20264;-63
2022/08/03 12:27:52;;;;;;;13.63;2.08;;;24.30;99.90;;;;;;5049714;28;20209;-64
2022/08/03 12:30:18;;;;;;;7.30;1.58;;;24.80;99.90;;;;;;5045374;28;20205;-64
2022/08/03 12:32:45;;;;;;;5.78;1.65;;;25.00;99.90;;;;;;5031485;28;20166;-64
2022/08/03 12:35:23;;;;;;;7.18;1.73;;;24.70;99.90;;;;;;5032253;28;20209;-63
2022/08/03 12:37:49;;;;;;;6.13;1.65;;;24.60;99.90;;;;;;5051207;28;20616;-64
2022/08/03 12:40:25;;;;;;;4.93;1.60;;;24.90;99.90;;;;;;5042306;28;20211;-64
2022/08/03 12:42:50;;;;;;;9.20;2.03;;;25.10;99.90;;;;;;5031492;28;20178;-64
2022/08/03 12:45:27;;;;;;;5.60;1.83;;;25.20;99.90;;;;;;5034664;28;20584;-64
2022/08/03 12:47:58;;;;;;;5.85;1.80;;;25.20;99.90;;;;;;5031923;28;20668;-65
2022/08/03 12:50:29;;;;;;;6.85;1.85;;;25.30;99.90;;;;;;5051099;28;20180;-64
2022/08/03 12:52:56;;;;;;;6.90;1.83;;;25.50;99.90;;;;;;5050804;28;20177;-63
2022/08/03 12:55:23;;;;;;;6.20;1.83;;;25.70;99.90;;;;;;5050147;28;20169;-62
2022/08/03 12:57:49;;;;;;;9.48;1.90;;;26.00;99.90;;;;;;5039529;28;20191;-63
2022/08/03 13:00:18;;;;;;;9.05;2.20;;;26.30;99.90;;;;;;5042327;28;20224;-63
2022/08/03 13:02:44;;;;;;;8.93;1.63;;;26.50;99.90;;;;;;5030728;28;20178;-63